Time;durP1;ratioP1;P1;durP2;ratioP2;P2;SDS_P1;SDS_P2;PMS_P1;PMS_P2;Temp;Humidity;BMP_temperature;BMP_pressure;BME280_temperature;BME280_humidity;BME280_pressure;Samples;Min_cycle;Max_cycle;Signal;HPM_P1;HPM_P2
2022/06/26 00:02:20;;;;;;;14.40;9.63;;;19.70;99.90;;;;;;6152219;23;20052;-73
2022/06/26 00:04:46;;;;;;;17.10;9.40;;;19.70;99.90;;;;;;6179746;23;20013;-74
2022/06/26 00:07:11;;;;;;;11.65;10.10;;;19.60;99.90;;;;;;6179256;23;20426;-74
2022/06/26 00:09:37;;;;;;;16.33;11.35;;;19.60;99.90;;;;;;6177854;23;20096;-74
2022/06/26 00:12:03;;;;;;;16.38;10.23;;;19.70;99.90;;;;;;6179470;23;20465;-73
2022/06/26 00:14:29;;;;;;;14.57;11.68;;;19.60;99.90;;;;;;6152352;23;20104;-74
2022/06/26 00:16:54;;;;;;;15.65;12.38;;;19.60;99.90;;;;;;6179289;23;20346;-74
2022/06/26 00:19:20;;;;;;;19.48;13.65;;;19.60;99.90;;;;;;6152510;23;20024;-74
2022/06/26 00:21:50;;;;;;;17.15;14.38;;;19.60;99.90;;;;;;6152853;23;20021;-74
2022/06/26 00:24:17;;;;;;;18.58;15.80;;;19.60;99.90;;;;;;6177808;23;20024;-74
2022/06/26 00:26:42;;;;;;;20.65;16.08;;;19.60;99.90;;;;;;6150607;23;20021;-74
2022/06/26 00:29:08;;;;;;;19.33;15.63;;;19.50;99.90;;;;;;6151350;23;20512;-74
2022/06/26 00:31:34;;;;;;;17.98;15.45;;;19.60;99.90;;;;;;6179370;23;20017;-74
2022/06/26 00:34:06;;;;;;;20.70;16.42;;;19.50;99.90;;;;;;6178765;23;20465;-74
2022/06/26 00:36:31;;;;;;;17.92;15.35;;;19.60;99.90;;;;;;6179801;23;20633;-74
2022/06/26 00:38:57;;;;;;;19.15;15.32;;;19.60;99.90;;;;;;6179317;23;20078;-74
2022/06/26 00:41:22;;;;;;;22.70;16.63;;;19.60;99.90;;;;;;6153729;23;20052;-74
2022/06/26 00:43:48;;;;;;;20.05;16.27;;;19.60;99.90;;;;;;6150555;23;20075;-73
2022/06/26 00:46:14;;;;;;;19.50;15.23;;;19.60;99.90;;;;;;6153069;23;20013;-74
2022/06/26 00:48:40;;;;;;;22.13;16.40;;;19.50;99.90;;;;;;6178827;23;20017;-74
2022/06/26 00:51:06;;;;;;;21.60;16.40;;;19.50;99.90;;;;;;6151299;23;20021;-74
2022/06/26 00:53:34;;;;;;;17.48;14.73;;;19.50;99.90;;;;;;6178658;23;20032;-74
2022/06/26 00:56:00;;;;;;;19.92;15.55;;;19.50;99.90;;;;;;6180423;23;20017;-74
2022/06/26 00:58:28;;;;;;;20.10;16.95;;;19.40;99.90;;;;;;6149972;23;20025;-74
2022/06/26 01:00:54;;;;;;;17.05;15.25;;;19.40;99.90;;;;;;6178700;23;20063;-74
2022/06/26 01:03:21;;;;;;;16.85;14.45;;;19.40;99.90;;;;;;6178851;23;20088;-74
2022/06/26 01:05:47;;;;;;;19.17;16.20;;;19.40;99.90;;;;;;6152009;23;20470;-75
2022/06/26 01:08:13;;;;;;;21.25;14.90;;;19.40;99.90;;;;;;6178588;23;20077;-74
2022/06/26 01:10:39;;;;;;;18.75;14.30;;;19.30;99.90;;;;;;6152037;23;20021;-75
2022/06/26 01:13:06;;;;;;;21.25;15.32;;;19.30;99.90;;;;;;6177200;23;20349;-74
2022/06/26 01:15:32;;;;;;;20.02;15.35;;;19.30;99.90;;;;;;6180223;23;20096;-74
2022/06/26 01:17:58;;;;;;;16.80;14.63;;;19.30;99.90;;;;;;6178628;23;20056;-74
2022/06/26 01:20:24;;;;;;;21.42;16.50;;;19.30;99.90;;;;;;6177709;23;20085;-74
2022/06/26 01:23:01;;;;;;;19.58;14.85;;;19.30;99.90;;;;;;6152551;23;20021;-74
2022/06/26 01:25:42;;;;;;;24.90;15.52;;;19.20;99.90;;;;;;6190671;23;20353;-74
2022/06/26 01:28:08;;;;;;;15.43;13.80;;;19.10;99.90;;;;;;6206652;23;20468;-74
2022/06/26 01:30:33;;;;;;;23.70;16.45;;;19.00;99.90;;;;;;6182064;23;20017;-73
2022/06/26 01:32:59;;;;;;;19.08;14.70;;;19.00;99.90;;;;;;6209073;23;20025;-74
2022/06/26 01:35:24;;;;;;;22.83;14.90;;;19.00;99.90;;;;;;6184537;23;20021;-74
2022/06/26 01:37:50;;;;;;;18.70;14.20;;;19.00;99.90;;;;;;6183499;23;20112;-75
2022/06/26 01:40:15;;;;;;;19.33;14.82;;;19.00;99.90;;;;;;6183772;23;20457;-74
2022/06/26 01:42:41;;;;;;;17.35;14.27;;;19.00;99.90;;;;;;6208118;23;20017;-74
2022/06/26 01:45:07;;;;;;;18.52;12.60;;;19.00;99.90;;;;;;6183827;23;20108;-74
2022/06/26 01:47:33;;;;;;;26.40;14.60;;;19.10;99.90;;;;;;6182834;23;20392;-74
2022/06/26 01:49:58;;;;;;;16.98;12.90;;;19.10;99.90;;;;;;6184050;23;20017;-74
2022/06/26 01:52:24;;;;;;;21.27;13.57;;;19.10;99.90;;;;;;6209781;23;20024;-74
2022/06/26 01:54:50;;;;;;;21.75;13.25;;;19.10;99.90;;;;;;6209849;23;20719;-73
2022/06/26 01:57:15;;;;;;;18.17;12.38;;;19.10;99.90;;;;;;6183371;23;20020;-73
2022/06/26 01:59:41;;;;;;;18.60;11.95;;;19.10;99.90;;;;;;6209290;23;20017;-74
2022/06/26 02:02:06;;;;;;;23.55;15.23;;;19.10;99.90;;;;;;6210241;23;20013;-73
2022/06/26 02:04:32;;;;;;;16.80;11.85;;;19.10;99.90;;;;;;6184714;23;20622;-73
2022/06/26 02:06:58;;;;;;;15.25;11.45;;;19.20;99.90;;;;;;6184141;23;20625;-73
2022/06/26 02:14:52;;;;;;;13.73;9.32;;;19.20;99.90;;;;;;6207611;23;20056;-74
2022/06/26 02:17:17;;;;;;;15.60;9.55;;;19.10;99.90;;;;;;6211369;23;20329;-74
2022/06/26 02:19:43;;;;;;;15.05;10.02;;;19.20;99.90;;;;;;6209636;23;20028;-74
2022/06/26 02:22:09;;;;;;;12.60;9.27;;;19.20;99.90;;;;;;6209676;23;20016;-73
2022/06/26 02:24:36;;;;;;;14.40;9.98;;;19.20;99.90;;;;;;6209097;23;20016;-73
2022/06/26 02:27:02;;;;;;;13.60;8.23;;;19.20;99.90;;;;;;6209988;23;20322;-74
2022/06/26 02:29:27;;;;;;;12.32;9.00;;;19.20;99.90;;;;;;6181987;23;20020;-74
2022/06/26 02:31:53;;;;;;;13.48;8.00;;;19.20;99.90;;;;;;6209627;23;20053;-74
2022/06/26 02:34:18;;;;;;;11.55;7.50;;;19.20;99.90;;;;;;6210231;23;20305;-74
2022/06/26 02:36:44;;;;;;;12.07;7.05;;;19.20;99.90;;;;;;6209803;23;20059;-75
2022/06/26 02:39:10;;;;;;;16.55;7.90;;;19.20;99.90;;;;;;6208775;23;20017;-75
2022/06/26 02:41:35;;;;;;;10.93;7.18;;;19.10;99.90;;;;;;6184241;23;20026;-75
2022/06/26 02:44:01;;;;;;;13.32;7.40;;;19.10;99.90;;;;;;6208143;23;20020;-76
2022/06/26 02:46:26;;;;;;;11.77;7.47;;;19.00;99.90;;;;;;6183232;23;20341;-76
2022/06/26 02:48:52;;;;;;;10.93;6.45;;;18.90;99.90;;;;;;6182647;23;20457;-78
2022/06/26 02:51:19;;;;;;;12.98;6.70;;;18.90;99.90;;;;;;6210241;23;20437;-76
2022/06/26 02:53:45;;;;;;;11.02;6.32;;;18.90;99.90;;;;;;6209287;23;20091;-75
2022/06/26 02:56:11;;;;;;;10.38;6.43;;;18.90;99.90;;;;;;6211368;23;20016;-75
2022/06/26 02:58:37;;;;;;;11.57;6.88;;;18.80;99.90;;;;;;6209109;23;20066;-75
2022/06/26 03:01:02;;;;;;;11.32;6.18;;;18.80;99.90;;;;;;6211012;23;20063;-75
2022/06/26 03:03:28;;;;;;;7.68;4.97;;;18.70;99.90;;;;;;6209109;23;20220;-75
2022/06/26 03:05:54;;;;;;;11.73;5.00;;;18.70;99.90;;;;;;6209911;23;20055;-75
2022/06/26 03:08:19;;;;;;;9.48;5.15;;;18.60;99.90;;;;;;6210074;23;20016;-75
2022/06/26 03:10:45;;;;;;;9.43;5.07;;;18.60;99.90;;;;;;6184437;23;20021;-75
2022/06/26 03:13:10;;;;;;;8.00;3.80;;;18.60;99.90;;;;;;6208475;23;20051;-75
2022/06/26 03:15:36;;;;;;;6.78;4.10;;;18.50;99.90;;;;;;6209176;23;20020;-75
2022/06/26 03:18:02;;;;;;;10.00;4.03;;;18.50;99.90;;;;;;6181775;23;20438;-75
2022/06/26 03:20:28;;;;;;;6.80;3.83;;;18.50;99.90;;;;;;6183736;23;20024;-75
2022/06/26 03:22:54;;;;;;;7.13;4.20;;;18.40;99.90;;;;;;6182722;23;20154;-76
2022/06/26 03:25:20;;;;;;;6.13;4.25;;;18.40;99.90;;;;;;6171624;23;20120;-75
2022/06/26 03:27:45;;;;;;;5.55;4.20;;;18.40;99.90;;;;;;6178951;23;20037;-76
2022/06/26 03:30:12;;;;;;;7.00;4.45;;;18.40;99.90;;;;;;6153524;23;20017;-75
2022/06/26 03:32:38;;;;;;;8.52;4.28;;;18.40;99.90;;;;;;6178255;23;20017;-76
2022/06/26 03:35:04;;;;;;;8.35;4.10;;;18.40;99.90;;;;;;6154400;23;20445;-76
2022/06/26 03:37:30;;;;;;;6.60;3.97;;;18.40;99.90;;;;;;6179362;23;20472;-75
2022/06/26 03:39:56;;;;;;;5.43;3.65;;;18.40;99.90;;;;;;6178793;23;20092;-75
2022/06/26 03:42:21;;;;;;;8.27;4.15;;;18.40;99.90;;;;;;6180449;23;20501;-75
2022/06/26 03:44:47;;;;;;;9.02;4.07;;;18.40;99.90;;;;;;6178993;23;20065;-75
2022/06/26 03:47:13;;;;;;;5.95;3.15;;;18.40;99.90;;;;;;6177909;23;20017;-76
2022/06/26 03:49:38;;;;;;;5.47;3.40;;;18.30;99.90;;;;;;6179014;23;20024;-76
2022/06/26 03:52:04;;;;;;;7.70;3.45;;;18.30;99.90;;;;;;6180271;23;20025;-76
2022/06/26 03:54:30;;;;;;;5.47;3.60;;;18.30;99.90;;;;;;6178581;23;20343;-76
2022/06/26 03:56:56;;;;;;;4.45;3.20;;;18.30;99.90;;;;;;6179260;23;20021;-75
2022/06/26 03:59:22;;;;;;;5.35;3.33;;;18.30;99.90;;;;;;6177638;23;20359;-76
2022/06/26 04:01:47;;;;;;;8.27;3.22;;;18.20;99.90;;;;;;6177196;23;20100;-76
2022/06/26 04:04:13;;;;;;;4.32;2.80;;;18.30;99.90;;;;;;6179706;23;20067;-77
2022/06/26 04:06:39;;;;;;;5.13;2.90;;;18.30;99.90;;;;;;6153103;23;20070;-77
2022/06/26 04:09:04;;;;;;;6.22;2.97;;;18.20;99.90;;;;;;6178107;23;20104;-76
2022/06/26 04:11:30;;;;;;;3.97;2.47;;;18.20;99.90;;;;;;6180121;23;20074;-76
2022/06/26 04:13:56;;;;;;;5.43;2.80;;;18.20;99.90;;;;;;6177996;23;20057;-76
2022/06/26 04:16:22;;;;;;;6.60;3.05;;;18.10;99.90;;;;;;6179150;23;20009;-77
2022/06/26 04:18:47;;;;;;;4.75;2.70;;;18.10;99.90;;;;;;6179832;23;20009;-76
2022/06/26 04:21:13;;;;;;;5.65;3.05;;;18.10;99.90;;;;;;6178532;23;20025;-75
2022/06/26 04:23:39;;;;;;;7.78;3.72;;;18.10;99.90;;;;;;6178234;23;20063;-76
2022/06/26 04:26:05;;;;;;;5.70;3.42;;;18.10;99.90;;;;;;6199179;23;20027;-76
2022/06/26 04:28:31;;;;;;;6.65;3.28;;;18.10;99.90;;;;;;6206349;23;20042;-76
2022/06/26 04:30:57;;;;;;;6.80;2.95;;;18.10;99.90;;;;;;6209058;23;20012;-77
2022/06/26 04:33:22;;;;;;;4.85;2.63;;;18.20;99.90;;;;;;6180743;23;20571;-76
2022/06/26 04:35:48;;;;;;;10.80;3.10;;;18.10;99.90;;;;;;6208164;23;20147;-77
2022/06/26 04:38:14;;;;;;;4.90;3.00;;;18.10;99.90;;;;;;6208946;23;20024;-76
2022/06/26 04:40:39;;;;;;;7.32;3.78;;;18.10;99.90;;;;;;6208982;23;20016;-77
2022/06/26 04:43:05;;;;;;;3.70;2.60;;;18.20;99.90;;;;;;6206687;23;20017;-77
2022/06/26 04:45:31;;;;;;;4.03;3.08;;;18.20;99.90;;;;;;6209846;23;20013;-77
2022/06/26 04:47:56;;;;;;;4.18;2.65;;;18.20;99.90;;;;;;6180862;23;20074;-76
2022/06/26 04:50:22;;;;;;;4.32;3.08;;;18.20;99.90;;;;;;6207182;23;20330;-77
2022/06/26 04:52:49;;;;;;;4.80;3.15;;;18.30;99.90;;;;;;6181980;23;20039;-76
2022/06/26 04:55:15;;;;;;;5.03;3.00;;;18.20;99.90;;;;;;6182950;23;20017;-75
2022/06/26 04:57:41;;;;;;;5.70;3.50;;;18.30;99.90;;;;;;6205198;23;20025;-76
2022/06/26 05:00:11;;;;;;;5.15;3.22;;;18.20;99.90;;;;;;6182934;23;20012;-76
2022/06/26 05:02:37;;;;;;;6.57;3.30;;;18.30;99.90;;;;;;6182503;23;20043;-78
2022/06/26 05:05:04;;;;;;;4.25;3.25;;;18.20;99.90;;;;;;6182913;23;20024;-78
2022/06/26 05:07:30;;;;;;;4.75;2.95;;;18.30;99.90;;;;;;6183072;23;20052;-78
2022/06/26 05:09:56;;;;;;;5.50;2.90;;;18.30;99.90;;;;;;6184648;23;20020;-78
2022/06/26 05:12:21;;;;;;;7.38;3.17;;;18.30;99.90;;;;;;6208493;23;20017;-78
2022/06/26 05:14:47;;;;;;;5.10;2.92;;;18.30;99.90;;;;;;6207907;23;20012;-79
2022/06/26 05:17:13;;;;;;;5.15;3.45;;;18.40;99.90;;;;;;6211706;23;20322;-79
2022/06/26 05:19:39;;;;;;;5.03;3.10;;;18.40;99.90;;;;;;6182889;23;20034;-78
2022/06/26 05:22:05;;;;;;;7.28;3.80;;;18.40;99.90;;;;;;6211695;23;20075;-78
2022/06/26 05:24:31;;;;;;;6.53;4.28;;;18.40;99.90;;;;;;6181512;23;20044;-78
2022/06/26 05:26:58;;;;;;;6.43;3.80;;;18.20;99.90;;;;;;6210170;23;20036;-78
2022/06/26 05:29:24;;;;;;;5.45;3.42;;;18.30;99.90;;;;;;6208222;23;20023;-79
2022/06/26 05:31:50;;;;;;;6.85;3.95;;;18.30;99.90;;;;;;6182881;23;20400;-78
2022/06/26 05:34:16;;;;;;;5.32;3.70;;;18.40;99.90;;;;;;6183072;23;20024;-78
2022/06/26 05:36:41;;;;;;;6.28;4.35;;;18.40;99.90;;;;;;6209398;23;20008;-78
2022/06/26 05:39:07;;;;;;;5.22;4.03;;;18.30;99.90;;;;;;6208587;23;20074;-77
2022/06/26 05:41:33;;;;;;;6.28;4.90;;;18.30;99.90;;;;;;6209965;23;20017;-76
2022/06/26 05:43:59;;;;;;;6.05;3.95;;;18.30;99.90;;;;;;6208184;23;20024;-77
2022/06/26 05:46:25;;;;;;;7.00;4.20;;;18.30;99.90;;;;;;6181625;23;20013;-78
2022/06/26 05:48:51;;;;;;;5.40;4.30;;;18.30;99.90;;;;;;6182888;23;20425;-74
2022/06/26 05:51:16;;;;;;;7.65;4.80;;;18.40;99.90;;;;;;6183766;23;20096;-75
2022/06/26 05:53:42;;;;;;;6.45;4.43;;;18.30;99.90;;;;;;6180284;23;20021;-74
2022/06/26 05:56:08;;;;;;;7.18;5.07;;;18.30;99.90;;;;;;6183187;23;20017;-75
2022/06/26 05:58:33;;;;;;;7.32;5.70;;;18.50;99.90;;;;;;6182165;23;20016;-75
2022/06/26 06:00:59;;;;;;;9.82;6.75;;;18.40;99.90;;;;;;6209054;23;20051;-75
2022/06/26 06:03:25;;;;;;;10.05;6.97;;;18.40;99.90;;;;;;6180853;23;20019;-77
2022/06/26 06:05:50;;;;;;;7.75;6.30;;;18.40;99.90;;;;;;6182979;23;20117;-78
2022/06/26 06:08:16;;;;;;;7.22;5.55;;;18.40;99.90;;;;;;6208010;23;20110;-75
2022/06/26 06:10:42;;;;;;;8.93;5.75;;;18.50;99.90;;;;;;6181772;23;20095;-78
2022/06/26 06:13:07;;;;;;;9.40;6.72;;;18.50;99.90;;;;;;6179952;23;20025;-76
2022/06/26 06:15:33;;;;;;;8.48;5.72;;;18.50;99.90;;;;;;6208857;23;20016;-77
2022/06/26 06:17:58;;;;;;;8.52;6.68;;;18.60;99.90;;;;;;6208583;23;20048;-77
2022/06/26 06:20:24;;;;;;;10.50;6.55;;;18.60;99.90;;;;;;6210436;23;20091;-76
2022/06/26 06:23:08;;;;;;;11.05;8.05;;;18.60;99.90;;;;;;6181048;23;20087;-77
2022/06/26 06:25:34;;;;;;;9.98;7.95;;;18.60;99.90;;;;;;6208400;23;20364;-74
2022/06/26 06:28:00;;;;;;;11.75;7.60;;;18.60;99.90;;;;;;6207300;23;20099;-74
2022/06/26 06:30:25;;;;;;;9.85;8.50;;;18.60;99.90;;;;;;6182545;23;20020;-74
2022/06/26 06:32:51;;;;;;;13.73;9.02;;;18.60;99.90;;;;;;6209531;23;20016;-74
2022/06/26 06:35:17;;;;;;;14.43;9.75;;;18.70;99.90;;;;;;6180410;23;20118;-74
2022/06/26 06:37:44;;;;;;;12.40;9.60;;;18.70;99.90;;;;;;6208621;23;20013;-74
2022/06/26 06:40:11;;;;;;;14.07;10.05;;;18.70;99.90;;;;;;6181713;23;20079;-74
2022/06/26 06:42:37;;;;;;;12.25;8.38;;;18.80;99.90;;;;;;6207772;23;20017;-74
2022/06/26 06:45:03;;;;;;;14.45;8.82;;;18.80;99.90;;;;;;6208852;23;20088;-73
2022/06/26 06:47:29;;;;;;;11.68;9.63;;;18.80;99.90;;;;;;6208303;23;20075;-74
2022/06/26 06:49:55;;;;;;;12.15;9.82;;;18.90;99.90;;;;;;6208615;23;20021;-73
2022/06/26 06:52:21;;;;;;;13.23;10.00;;;19.00;99.90;;;;;;6207143;23;20020;-74
2022/06/26 06:54:46;;;;;;;13.65;12.15;;;19.00;99.90;;;;;;6206995;23;20040;-77
2022/06/26 06:57:12;;;;;;;15.15;11.60;;;19.10;99.90;;;;;;6208326;23;20013;-77
2022/06/26 06:59:37;;;;;;;13.45;11.93;;;19.10;99.90;;;;;;6181387;23;20151;-73
2022/06/26 07:02:03;;;;;;;14.27;11.48;;;19.10;99.90;;;;;;6209259;23;20456;-73
2022/06/26 07:04:29;;;;;;;14.45;12.13;;;19.10;99.90;;;;;;6180647;23;20086;-73
2022/06/26 07:06:55;;;;;;;14.40;12.40;;;19.10;99.90;;;;;;6207507;23;20017;-74
2022/06/26 07:09:21;;;;;;;16.52;13.15;;;19.20;99.90;;;;;;6206956;23;20024;-74
2022/06/26 07:11:46;;;;;;;15.20;12.73;;;19.20;99.90;;;;;;6180336;23;20067;-74
2022/06/26 07:14:12;;;;;;;15.23;12.73;;;19.20;99.90;;;;;;6204756;23;20114;-74
2022/06/26 07:16:38;;;;;;;16.75;13.60;;;19.20;99.90;;;;;;6205193;23;20016;-73
2022/06/26 07:19:04;;;;;;;15.70;13.93;;;19.10;99.90;;;;;;6205072;23;20020;-73
2022/06/26 07:21:30;;;;;;;18.35;13.55;;;19.30;99.90;;;;;;6182004;23;20016;-74
2022/06/26 07:23:56;;;;;;;15.18;13.30;;;19.40;99.90;;;;;;6178637;23;20063;-74
2022/06/26 07:26:22;;;;;;;15.13;12.93;;;19.40;99.90;;;;;;6168568;23;20448;-73
2022/06/26 07:28:47;;;;;;;15.57;12.57;;;19.40;99.90;;;;;;6193684;23;20012;-73
2022/06/26 07:31:13;;;;;;;18.58;14.00;;;19.40;99.90;;;;;;6174331;23;20104;-73
2022/06/26 07:36:23;;;;;;;19.85;13.90;;;19.40;99.90;;;;;;6182504;23;20437;-72
2022/06/26 07:38:48;;;;;;;19.60;15.18;;;19.40;99.90;;;;;;6207424;23;20105;-73
2022/06/26 07:41:14;;;;;;;16.70;13.93;;;19.50;99.90;;;;;;6182982;23;20019;-72
2022/06/26 07:43:40;;;;;;;20.13;14.05;;;19.40;99.90;;;;;;6180817;23;20024;-73
2022/06/26 07:46:05;;;;;;;16.25;14.55;;;19.40;99.90;;;;;;6209921;23;20094;-72
2022/06/26 07:48:33;;;;;;;17.20;14.63;;;19.40;99.90;;;;;;6208780;23;20017;-73
2022/06/26 07:50:58;;;;;;;18.17;15.32;;;19.40;99.90;;;;;;6208946;23;20024;-73
2022/06/26 07:53:24;;;;;;;21.67;15.20;;;19.40;99.90;;;;;;6207727;23;20025;-73
2022/06/26 07:55:50;;;;;;;23.27;16.50;;;19.40;99.90;;;;;;6181764;23;20019;-72
2022/06/26 07:58:15;;;;;;;19.52;16.05;;;19.40;99.90;;;;;;6180095;23;20467;-72
2022/06/26 08:00:41;;;;;;;19.77;14.77;;;19.40;99.90;;;;;;6207453;23;20506;-72
2022/06/26 08:03:09;;;;;;;18.85;15.73;;;19.40;99.90;;;;;;6181376;23;20020;-73
2022/06/26 08:05:35;;;;;;;23.20;16.05;;;19.40;99.90;;;;;;6181592;23;20042;-73
2022/06/26 08:08:01;;;;;;;16.48;14.52;;;19.40;99.90;;;;;;6206579;23;20087;-73
2022/06/26 08:10:27;;;;;;;16.92;14.10;;;19.40;99.90;;;;;;6208498;23;20063;-74
2022/06/26 08:12:54;;;;;;;16.42;14.10;;;19.50;99.90;;;;;;6181431;23;20028;-73
2022/06/26 08:15:20;;;;;;;18.20;14.77;;;19.40;99.90;;;;;;6208058;23;20021;-73
2022/06/26 08:17:46;;;;;;;15.93;13.93;;;19.60;99.90;;;;;;6208806;23;20116;-73
2022/06/26 08:20:11;;;;;;;17.73;14.55;;;19.70;99.90;;;;;;6183037;23;20123;-74
2022/06/26 08:22:37;;;;;;;14.57;11.80;;;19.80;99.90;;;;;;6180334;23;20023;-74
2022/06/26 08:25:03;;;;;;;11.18;9.55;;;19.90;99.90;;;;;;6179337;23;20025;-73
2022/06/26 08:27:29;;;;;;;12.38;9.48;;;20.00;99.90;;;;;;6180962;23;20095;-75
2022/06/26 08:29:54;;;;;;;13.82;8.88;;;20.00;99.90;;;;;;6208591;23;20040;-74
2022/06/26 08:32:23;;;;;;;15.93;9.18;;;20.00;99.90;;;;;;6181752;23;20094;-73
2022/06/26 08:34:48;;;;;;;10.85;8.32;;;20.00;99.90;;;;;;6208306;23;20100;-74
2022/06/26 08:37:15;;;;;;;10.32;7.93;;;20.00;99.90;;;;;;6181611;23;20103;-74
2022/06/26 08:39:41;;;;;;;12.73;8.45;;;20.00;99.90;;;;;;6207379;23;20027;-73
2022/06/26 08:42:06;;;;;;;11.23;8.90;;;20.00;99.90;;;;;;6207524;23;20012;-73
2022/06/26 08:44:33;;;;;;;11.55;7.70;;;20.00;99.90;;;;;;6208335;23;20039;-73
2022/06/26 08:46:59;;;;;;;13.15;8.30;;;20.10;99.90;;;;;;6209784;23;20041;-73
2022/06/26 08:49:25;;;;;;;10.60;8.05;;;20.10;99.90;;;;;;6208896;23;20020;-75
2022/06/26 08:51:51;;;;;;;11.13;8.40;;;20.00;99.90;;;;;;6182718;23;20009;-73
2022/06/26 08:54:18;;;;;;;12.63;8.10;;;20.20;99.90;;;;;;6209024;23;20017;-73
2022/06/26 08:56:46;;;;;;;8.93;7.68;;;20.20;99.90;;;;;;6180802;23;20044;-74
2022/06/26 08:59:14;;;;;;;8.52;6.90;;;20.20;99.90;;;;;;6207759;23;20016;-74
2022/06/26 09:01:41;;;;;;;11.75;6.95;;;20.20;99.90;;;;;;6177837;23;20416;-74
2022/06/26 09:04:07;;;;;;;7.35;6.50;;;20.20;99.90;;;;;;6206089;23;20352;-75
2022/06/26 09:06:34;;;;;;;8.95;6.07;;;20.20;99.90;;;;;;6179991;23;20013;-76
2022/06/26 09:09:00;;;;;;;12.80;7.30;;;20.20;99.90;;;;;;6203885;23;20020;-73
2022/06/26 09:11:25;;;;;;;9.82;6.47;;;20.20;99.90;;;;;;6178544;23;20104;-74
2022/06/26 09:13:53;;;;;;;9.30;6.13;;;20.10;99.90;;;;;;6175833;23;20332;-75
2022/06/26 09:16:31;;;;;;;9.57;6.07;;;20.20;99.90;;;;;;6207792;23;20358;-74
2022/06/26 09:19:09;;;;;;;12.25;5.93;;;20.30;99.90;;;;;;6202389;23;20023;-73
2022/06/26 09:21:35;;;;;;;8.60;5.22;;;20.40;99.90;;;;;;6205477;23;20035;-74
2022/06/26 09:24:01;;;;;;;10.60;6.30;;;20.50;99.90;;;;;;6204273;23;20115;-74
2022/06/26 09:26:27;;;;;;;15.43;5.97;;;20.70;99.90;;;;;;6177959;23;20024;-74
2022/06/26 09:28:53;;;;;;;9.70;5.72;;;20.80;99.90;;;;;;6207641;23;20365;-74
2022/06/26 09:31:22;;;;;;;10.52;5.30;;;20.80;99.90;;;;;;6209513;23;20012;-74
2022/06/26 09:33:48;;;;;;;6.63;4.43;;;20.90;99.90;;;;;;6208586;23;20016;-76
2022/06/26 09:36:16;;;;;;;8.38;4.78;;;20.90;99.90;;;;;;6209813;23;20013;-74
2022/06/26 09:38:49;;;;;;;6.85;3.80;;;20.90;99.90;;;;;;6179451;23;20519;-74
2022/06/26 09:41:15;;;;;;;7.88;3.55;;;20.90;99.90;;;;;;6182224;23;20012;-74
2022/06/26 09:43:44;;;;;;;4.57;2.95;;;20.80;99.90;;;;;;6180119;23;20112;-74
2022/06/26 09:46:14;;;;;;;5.22;3.80;;;20.90;99.90;;;;;;6180851;23;20027;-75
2022/06/26 09:48:41;;;;;;;6.43;3.92;;;20.80;99.90;;;;;;6179429;23;20016;-74
2022/06/26 09:51:09;;;;;;;6.53;4.30;;;20.80;99.90;;;;;;6209354;23;20045;-75
2022/06/26 09:53:36;;;;;;;6.53;4.30;;;20.80;99.90;;;;;;6179288;23;20021;-74
2022/06/26 09:56:02;;;;;;;4.45;3.17;;;20.90;99.90;;;;;;6210459;23;20016;-74
2022/06/26 09:58:29;;;;;;;5.75;2.58;;;20.80;99.90;;;;;;6208976;23;20092;-75
2022/06/26 10:06:30;;;;;;;4.03;2.28;;;20.90;99.90;;;;;;6183253;23;20027;-75
2022/06/26 10:09:04;;;;;;;4.90;2.60;;;20.90;99.90;;;;;;6180877;23;20485;-75
2022/06/26 10:11:34;;;;;;;4.70;2.20;;;20.90;99.90;;;;;;6210340;23;20075;-74
2022/06/26 10:14:22;;;;;;;4.28;2.50;;;21.00;99.90;;;;;;6182012;23;20017;-74
2022/06/26 10:17:18;;;;;;;3.97;2.50;;;21.10;99.90;;;;;;6210155;23;20027;-76
2022/06/26 10:19:54;;;;;;;5.07;2.30;;;21.20;99.90;;;;;;6209805;23;20397;-74
2022/06/26 10:22:20;;;;;;;6.47;2.70;;;21.20;99.90;;;;;;6211267;23;20295;-74
2022/06/26 10:25:00;;;;;;;4.50;2.10;;;21.30;99.90;;;;;;6209156;23;20035;-74
2022/06/26 10:27:29;;;;;;;6.43;3.15;;;21.40;99.90;;;;;;6181819;23;20436;-74
2022/06/26 10:30:13;;;;;;;6.20;2.85;;;21.50;99.90;;;;;;6209921;23;20017;-74
2022/06/26 10:32:43;;;;;;;22.42;3.17;;;21.60;99.90;;;;;;6210546;23;20100;-74
2022/06/26 10:35:10;;;;;;;3.55;2.42;;;21.70;99.90;;;;;;6209708;23;20215;-74
2022/06/26 10:37:46;;;;;;;4.97;2.60;;;21.80;99.90;;;;;;6183109;23;20020;-74
2022/06/26 10:43:09;;;;;;;5.55;2.40;;;22.00;99.90;;;;;;6180711;23;20024;-74
2022/06/26 10:45:40;;;;;;;6.53;2.33;;;22.00;99.90;;;;;;6182161;23;20306;-74
2022/06/26 10:48:17;;;;;;;3.70;2.47;;;22.10;99.90;;;;;;6206465;23;20021;-74
2022/06/26 10:50:45;;;;;;;4.57;2.50;;;22.10;99.90;;;;;;6208587;23;20063;-75
2022/06/26 10:53:23;;;;;;;7.00;2.53;;;22.10;99.90;;;;;;6207949;23;20016;-74
2022/06/26 10:56:06;;;;;;;3.97;2.15;;;22.10;99.90;;;;;;6179010;23;20089;-74
2022/06/26 10:58:38;;;;;;;5.85;2.25;;;22.10;99.90;;;;;;6179800;23;20047;-74
2022/06/26 11:01:06;;;;;;;4.30;2.42;;;22.10;99.90;;;;;;6179726;23;20108;-74
2022/06/26 11:03:33;;;;;;;4.18;1.95;;;22.10;99.90;;;;;;6205659;23;20355;-74
2022/06/26 11:06:04;;;;;;;6.47;2.88;;;22.10;99.90;;;;;;6182003;23;20083;-75
2022/06/26 11:08:32;;;;;;;5.00;1.98;;;22.10;99.90;;;;;;6209223;23;20028;-74
2022/06/26 11:11:14;;;;;;;4.32;1.80;;;22.10;99.90;;;;;;6210871;23;20012;-73
2022/06/26 11:14:06;;;;;;;7.18;2.35;;;22.10;99.90;;;;;;6209107;23;20020;-74
2022/06/26 11:16:42;;;;;;;3.72;2.03;;;22.00;99.90;;;;;;6209627;23;20067;-75
2022/06/26 11:19:23;;;;;;;4.15;2.13;;;22.00;99.90;;;;;;6208267;23;20349;-73
2022/06/26 11:21:49;;;;;;;6.28;2.00;;;22.00;99.90;;;;;;6210495;23;20071;-74
2022/06/26 11:24:15;;;;;;;3.35;1.90;;;22.00;99.90;;;;;;6208478;23;20640;-74
2022/06/26 11:26:40;;;;;;;3.17;1.90;;;22.00;99.90;;;;;;6209188;23;20073;-73
2022/06/26 11:29:08;;;;;;;3.88;1.95;;;22.10;99.90;;;;;;6181136;23;20453;-75
2022/06/26 11:31:35;;;;;;;7.43;2.55;;;22.10;99.70;;;;;;6208847;23;20013;-73
2022/06/26 11:34:10;;;;;;;5.10;2.35;;;22.10;99.50;;;;;;6209175;23;20016;-73
2022/06/26 11:36:36;;;;;;;8.48;2.60;;;22.10;99.80;;;;;;6182843;23;21033;-73
2022/06/26 11:39:02;;;;;;;4.68;2.15;;;22.20;99.60;;;;;;6206533;23;20043;-72
2022/06/26 11:41:28;;;;;;;3.22;2.10;;;22.20;99.70;;;;;;6207671;23;20048;-73
2022/06/26 11:43:56;;;;;;;4.45;2.20;;;22.20;99.60;;;;;;6180000;23;20039;-73
2022/06/26 11:46:23;;;;;;;6.20;2.17;;;22.20;99.50;;;;;;6181497;23;20288;-79
2022/06/26 11:48:50;;;;;;;7.78;3.55;;;22.20;99.30;;;;;;6181169;23;20091;-78
2022/06/26 11:51:17;;;;;;;6.45;2.35;;;22.20;99.90;;;;;;6185369;23;20295;-77
2022/06/26 11:53:48;;;;;;;6.28;2.10;;;22.20;99.90;;;;;;6180364;23;20024;-77
2022/06/26 11:56:21;;;;;;;5.40;2.25;;;22.20;99.90;;;;;;6182937;23;20013;-76
2022/06/26 11:58:49;;;;;;;4.80;2.40;;;22.30;99.90;;;;;;6177187;23;20020;-77
2022/06/26 12:01:16;;;;;;;5.70;2.40;;;22.30;99.40;;;;;;6181830;23;20650;-79
2022/06/26 12:03:47;;;;;;;5.55;1.88;;;22.30;99.60;;;;;;6205383;23;20069;-77
2022/06/26 12:06:35;;;;;;;7.13;2.05;;;22.40;99.20;;;;;;6204575;23;20024;-77
2022/06/26 12:09:25;;;;;;;5.10;2.03;;;22.50;98.30;;;;;;6180867;23;20051;-76
2022/06/26 12:11:54;;;;;;;3.65;1.77;;;22.50;98.20;;;;;;6160276;23;20021;-77
2022/06/26 12:14:22;;;;;;;6.07;2.00;;;22.40;98.30;;;;;;6155734;23;20073;-74
2022/06/26 12:16:51;;;;;;;4.95;1.90;;;22.40;97.60;;;;;;6182313;23;20019;-74
2022/06/26 12:19:18;;;;;;;3.78;2.00;;;22.40;97.40;;;;;;6207944;23;20102;-73
2022/06/26 12:21:52;;;;;;;5.28;1.77;;;22.40;97.70;;;;;;6208140;23;20013;-73
2022/06/26 12:24:19;;;;;;;4.88;1.83;;;22.40;98.20;;;;;;6180853;23;20429;-74
2022/06/26 12:26:45;;;;;;;6.63;1.77;;;22.40;97.80;;;;;;6207331;23;20104;-73
2022/06/26 12:29:13;;;;;;;3.97;2.15;;;22.50;97.60;;;;;;6180593;23;20030;-73
2022/06/26 12:31:39;;;;;;;4.32;1.88;;;22.50;97.30;;;;;;6208696;23;20008;-73
2022/06/26 12:34:06;;;;;;;3.60;1.73;;;22.50;97.10;;;;;;6180362;23;21294;-73
2022/06/26 12:36:33;;;;;;;3.95;1.77;;;22.50;97.50;;;;;;6208228;23;20024;-73
2022/06/26 12:39:00;;;;;;;2.58;1.73;;;22.60;97.50;;;;;;6181730;23;20017;-73
2022/06/26 12:41:26;;;;;;;4.22;2.15;;;22.60;97.90;;;;;;6180478;23;20082;-74
2022/06/26 12:43:56;;;;;;;5.47;1.98;;;22.70;98.10;;;;;;6181380;23;20084;-76
2022/06/26 12:46:22;;;;;;;5.50;1.67;;;22.70;97.40;;;;;;6207072;23;20020;-75
2022/06/26 12:48:48;;;;;;;2.85;1.80;;;22.80;97.50;;;;;;6180494;23;20024;-75
2022/06/26 12:51:14;;;;;;;3.80;1.58;;;22.90;97.10;;;;;;6182853;23;20326;-75
2022/06/26 12:53:41;;;;;;;3.45;1.70;;;22.90;97.30;;;;;;6208219;23;20458;-75
2022/06/26 12:56:07;;;;;;;3.90;1.80;;;22.80;96.70;;;;;;6181070;23;20016;-76